sensor_id;sensor_type;location;lat;lon;timestamp;P1;durP1;ratioP1;P2;durP2;ratioP2
80159;SDS011;69486;59.082;37.928;2024-01-07T00:00:22;3.25;;;3.15;;
80159;SDS011;69486;59.082;37.928;2024-01-07T00:02:47;3.58;;;3.47;;
80159;SDS011;69486;59.082;37.928;2024-01-07T00:05:13;3.28;;;3.17;;
80159;SDS011;69486;59.082;37.928;2024-01-07T00:07:39;2.97;;;2.88;;
80159;SDS011;69486;59.082;37.928;2024-01-07T00:10:05;3.47;;;3.38;;
80159;SDS011;69486;59.082;37.928;2024-01-07T00:12:31;3.30;;;3.20;;
80159;SDS011;69486;59.082;37.928;2024-01-07T00:14:56;3.33;;;3.22;;
80159;SDS011;69486;59.082;37.928;2024-01-07T00:17:23;3.33;;;3.22;;
80159;SDS011;69486;59.082;37.928;2024-01-07T00:19:49;3.30;;;3.20;;
80159;SDS011;69486;59.082;37.928;2024-01-07T00:22:14;3.05;;;2.95;;
80159;SDS011;69486;59.082;37.928;2024-01-07T00:24:40;3.15;;;3.05;;
80159;SDS011;69486;59.082;37.928;2024-01-07T00:27:06;3.30;;;3.20;;
80159;SDS011;69486;59.082;37.928;2024-01-07T00:29:33;3.60;;;3.50;;
80159;SDS011;69486;59.082;37.928;2024-01-07T00:32:01;3.40;;;3.30;;
80159;SDS011;69486;59.082;37.928;2024-01-07T00:34:27;3.95;;;3.85;;
80159;SDS011;69486;59.082;37.928;2024-01-07T00:36:53;3.30;;;3.20;;
80159;SDS011;69486;59.082;37.928;2024-01-07T00:39:19;3.20;;;3.10;;
80159;SDS011;69486;59.082;37.928;2024-01-07T00:41:45;3.65;;;3.47;;
80159;SDS011;69486;59.082;37.928;2024-01-07T00:44:10;4.10;;;3.90;;
80159;SDS011;69486;59.082;37.928;2024-01-07T00:46:36;3.42;;;3.33;;
80159;SDS011;69486;59.082;37.928;2024-01-07T00:49:02;3.17;;;3.08;;
80159;SDS011;69486;59.082;37.928;2024-01-07T00:51:28;3.38;;;3.28;;
80159;SDS011;69486;59.082;37.928;2024-01-07T00:53:54;3.13;;;3.03;;
80159;SDS011;69486;59.082;37.928;2024-01-07T00:56:20;3.40;;;3.30;;
80159;SDS011;69486;59.082;37.928;2024-01-07T00:58:45;4.03;;;3.83;;
80159;SDS011;69486;59.082;37.928;2024-01-07T01:01:11;3.17;;;3.08;;
80159;SDS011;69486;59.082;37.928;2024-01-07T01:03:37;3.20;;;3.10;;
80159;SDS011;69486;59.082;37.928;2024-01-07T01:06:03;3.40;;;3.30;;
80159;SDS011;69486;59.082;37.928;2024-01-07T01:08:29;3.05;;;2.95;;
80159;SDS011;69486;59.082;37.928;2024-01-07T01:10:55;3.47;;;3.38;;
80159;SDS011;69486;59.082;37.928;2024-01-07T01:13:21;3.47;;;3.35;;
80159;SDS011;69486;59.082;37.928;2024-01-07T01:15:47;2.80;;;2.70;;
80159;SDS011;69486;59.082;37.928;2024-01-07T01:18:13;3.55;;;3.45;;
80159;SDS011;69486;59.082;37.928;2024-01-07T01:20:39;2.90;;;2.80;;
80159;SDS011;69486;59.082;37.928;2024-01-07T01:23:04;2.88;;;2.78;;
80159;SDS011;69486;59.082;37.928;2024-01-07T01:25:30;2.95;;;2.85;;
80159;SDS011;69486;59.082;37.928;2024-01-07T01:27:56;3.35;;;3.25;;
80159;SDS011;69486;59.082;37.928;2024-01-07T01:30:22;3.00;;;2.90;;
80159;SDS011;69486;59.082;37.928;2024-01-07T01:32:48;3.00;;;2.90;;
80159;SDS011;69486;59.082;37.928;2024-01-07T01:35:14;2.92;;;2.83;;
80159;SDS011;69486;59.082;37.928;2024-01-07T01:37:40;3.10;;;3.00;;
80159;SDS011;69486;59.082;37.928;2024-01-07T01:40:06;3.40;;;3.30;;
80159;SDS011;69486;59.082;37.928;2024-01-07T01:42:32;3.35;;;3.25;;
80159;SDS011;69486;59.082;37.928;2024-01-07T01:44:58;3.53;;;3.42;;
80159;SDS011;69486;59.082;37.928;2024-01-07T01:47:28;3.30;;;3.20;;
80159;SDS011;69486;59.082;37.928;2024-01-07T01:49:54;3.40;;;3.30;;
80159;SDS011;69486;59.082;37.928;2024-01-07T01:52:20;3.30;;;3.20;;
80159;SDS011;69486;59.082;37.928;2024-01-07T01:54:47;8.05;;;3.65;;
80159;SDS011;69486;59.082;37.928;2024-01-07T01:57:13;3.30;;;3.20;;
80159;SDS011;69486;59.082;37.928;2024-01-07T01:59:42;3.30;;;3.20;;
80159;SDS011;69486;59.082;37.928;2024-01-07T02:02:08;3.50;;;3.40;;
80159;SDS011;69486;59.082;37.928;2024-01-07T02:04:34;3.90;;;3.80;;
80159;SDS011;69486;59.082;37.928;2024-01-07T02:07:00;3.10;;;3.00;;
80159;SDS011;69486;59.082;37.928;2024-01-07T02:09:26;3.50;;;3.40;;
80159;SDS011;69486;59.082;37.928;2024-01-07T02:12:25;3.35;;;3.25;;
80159;SDS011;69486;59.082;37.928;2024-01-07T02:14:44;3.08;;;2.97;;
80159;SDS011;69486;59.082;37.928;2024-01-07T02:17:10;3.25;;;3.15;;
80159;SDS011;69486;59.082;37.928;2024-01-07T02:19:36;3.20;;;3.10;;
80159;SDS011;69486;59.082;37.928;2024-01-07T02:22:03;3.45;;;3.35;;
80159;SDS011;69486;59.082;37.928;2024-01-07T02:24:29;3.30;;;3.20;;
80159;SDS011;69486;59.082;37.928;2024-01-07T02:26:56;3.30;;;3.20;;
80159;SDS011;69486;59.082;37.928;2024-01-07T02:29:22;3.42;;;3.33;;
80159;SDS011;69486;59.082;37.928;2024-01-07T02:31:47;3.30;;;3.20;;
80159;SDS011;69486;59.082;37.928;2024-01-07T02:34:13;3.17;;;3.08;;
80159;SDS011;69486;59.082;37.928;2024-01-07T02:36:39;3.40;;;3.30;;
80159;SDS011;69486;59.082;37.928;2024-01-07T02:39:05;3.15;;;3.05;;
80159;SDS011;69486;59.082;37.928;2024-01-07T02:41:31;3.30;;;3.20;;
80159;SDS011;69486;59.082;37.928;2024-01-07T02:43:57;3.90;;;3.80;;
80159;SDS011;69486;59.082;37.928;2024-01-07T02:46:24;3.58;;;3.47;;
80159;SDS011;69486;59.082;37.928;2024-01-07T02:48:49;3.10;;;3.00;;
80159;SDS011;69486;59.082;37.928;2024-01-07T02:51:15;3.38;;;3.28;;
80159;SDS011;69486;59.082;37.928;2024-01-07T02:53:41;3.20;;;3.10;;
80159;SDS011;69486;59.082;37.928;2024-01-07T02:56:07;3.42;;;3.33;;
80159;SDS011;69486;59.082;37.928;2024-01-07T02:58:34;3.17;;;3.08;;
80159;SDS011;69486;59.082;37.928;2024-01-07T03:01:00;3.70;;;3.60;;
80159;SDS011;69486;59.082;37.928;2024-01-07T03:03:26;3.28;;;3.17;;
80159;SDS011;69486;59.082;37.928;2024-01-07T03:05:52;3.40;;;3.30;;
80159;SDS011;69486;59.082;37.928;2024-01-07T03:08:17;3.50;;;3.40;;
80159;SDS011;69486;59.082;37.928;2024-01-07T03:10:43;3.90;;;3.80;;
80159;SDS011;69486;59.082;37.928;2024-01-07T03:13:09;3.30;;;3.20;;
80159;SDS011;69486;59.082;37.928;2024-01-07T03:15:35;3.50;;;3.40;;
80159;SDS011;69486;59.082;37.928;2024-01-07T03:18:01;3.40;;;3.30;;
80159;SDS011;69486;59.082;37.928;2024-01-07T03:20:27;3.40;;;3.30;;
80159;SDS011;69486;59.082;37.928;2024-01-07T03:22:53;3.70;;;3.60;;
80159;SDS011;69486;59.082;37.928;2024-01-07T03:25:20;3.20;;;3.10;;
80159;SDS011;69486;59.082;37.928;2024-01-07T03:27:46;3.17;;;3.08;;
80159;SDS011;69486;59.082;37.928;2024-01-07T03:30:12;3.30;;;3.20;;
80159;SDS011;69486;59.082;37.928;2024-01-07T03:32:38;3.30;;;3.20;;
80159;SDS011;69486;59.082;37.928;2024-01-07T03:35:04;3.17;;;3.08;;
80159;SDS011;69486;59.082;37.928;2024-01-07T03:37:30;3.00;;;2.90;;
80159;SDS011;69486;59.082;37.928;2024-01-07T03:39:55;3.70;;;3.50;;
80159;SDS011;69486;59.082;37.928;2024-01-07T03:42:21;3.00;;;2.90;;
80159;SDS011;69486;59.082;37.928;2024-01-07T03:44:47;3.20;;;3.10;;
80159;SDS011;69486;59.082;37.928;2024-01-07T03:47:13;3.20;;;3.10;;
80159;SDS011;69486;59.082;37.928;2024-01-07T03:49:39;3.25;;;3.15;;
80159;SDS011;69486;59.082;37.928;2024-01-07T03:52:05;2.97;;;2.88;;
80159;SDS011;69486;59.082;37.928;2024-01-07T03:54:31;3.20;;;3.10;;
80159;SDS011;69486;59.082;37.928;2024-01-07T03:56:57;3.70;;;3.60;;
80159;SDS011;69486;59.082;37.928;2024-01-07T03:59:22;3.08;;;2.97;;
80159;SDS011;69486;59.082;37.928;2024-01-07T04:01:51;2.97;;;2.88;;
80159;SDS011;69486;59.082;37.928;2024-01-07T04:04:17;3.42;;;3.33;;
80159;SDS011;69486;59.082;37.928;2024-01-07T04:06:42;3.35;;;3.25;;
80159;SDS011;69486;59.082;37.928;2024-01-07T04:09:08;3.55;;;3.45;;
80159;SDS011;69486;59.082;37.928;2024-01-07T04:11:38;2.83;;;2.72;;
80159;SDS011;69486;59.082;37.928;2024-01-07T04:14:04;2.95;;;2.85;;
80159;SDS011;69486;59.082;37.928;2024-01-07T04:16:30;3.35;;;3.25;;
80159;SDS011;69486;59.082;37.928;2024-01-07T04:18:55;3.20;;;3.10;;
80159;SDS011;69486;59.082;37.928;2024-01-07T04:21:21;2.97;;;2.88;;
80159;SDS011;69486;59.082;37.928;2024-01-07T04:23:47;3.17;;;3.08;;
80159;SDS011;69486;59.082;37.928;2024-01-07T04:26:13;3.30;;;3.20;;
80159;SDS011;69486;59.082;37.928;2024-01-07T04:28:42;2.97;;;2.88;;
80159;SDS011;69486;59.082;37.928;2024-01-07T04:31:08;3.00;;;2.90;;
80159;SDS011;69486;59.082;37.928;2024-01-07T04:33:34;3.22;;;3.13;;
80159;SDS011;69486;59.082;37.928;2024-01-07T04:36:00;3.60;;;3.50;;
80159;SDS011;69486;59.082;37.928;2024-01-07T04:38:26;3.10;;;3.00;;
80159;SDS011;69486;59.082;37.928;2024-01-07T04:40:52;3.08;;;2.97;;
80159;SDS011;69486;59.082;37.928;2024-01-07T04:43:18;3.20;;;3.10;;
80159;SDS011;69486;59.082;37.928;2024-01-07T04:45:44;3.15;;;3.05;;
80159;SDS011;69486;59.082;37.928;2024-01-07T04:48:10;3.40;;;3.25;;
80159;SDS011;69486;59.082;37.928;2024-01-07T04:50:36;3.20;;;3.10;;
80159;SDS011;69486;59.082;37.928;2024-01-07T04:53:01;3.15;;;3.05;;
80159;SDS011;69486;59.082;37.928;2024-01-07T04:55:29;3.10;;;3.00;;
80159;SDS011;69486;59.082;37.928;2024-01-07T04:57:55;3.00;;;2.90;;
80159;SDS011;69486;59.082;37.928;2024-01-07T05:00:20;2.95;;;2.85;;
80159;SDS011;69486;59.082;37.928;2024-01-07T05:02:46;3.10;;;3.00;;
80159;SDS011;69486;59.082;37.928;2024-01-07T05:05:12;3.10;;;3.00;;
80159;SDS011;69486;59.082;37.928;2024-01-07T05:07:38;3.10;;;3.00;;
80159;SDS011;69486;59.082;37.928;2024-01-07T05:10:05;3.42;;;3.33;;
80159;SDS011;69486;59.082;37.928;2024-01-07T05:12:30;3.00;;;2.90;;
80159;SDS011;69486;59.082;37.928;2024-01-07T05:14:56;3.00;;;2.90;;
80159;SDS011;69486;59.082;37.928;2024-01-07T05:17:22;3.40;;;3.30;;
80159;SDS011;69486;59.082;37.928;2024-01-07T05:19:47;3.10;;;3.00;;
80159;SDS011;69486;59.082;37.928;2024-01-07T05:22:13;3.40;;;3.30;;
80159;SDS011;69486;59.082;37.928;2024-01-07T05:24:39;4.18;;;3.97;;
80159;SDS011;69486;59.082;37.928;2024-01-07T05:27:05;3.38;;;3.28;;
80159;SDS011;69486;59.082;37.928;2024-01-07T05:29:31;3.30;;;3.20;;
80159;SDS011;69486;59.082;37.928;2024-01-07T05:31:59;3.30;;;3.20;;
80159;SDS011;69486;59.082;37.928;2024-01-07T05:34:26;3.20;;;3.10;;
80159;SDS011;69486;59.082;37.928;2024-01-07T05:36:52;3.50;;;3.40;;
80159;SDS011;69486;59.082;37.928;2024-01-07T05:39:18;3.30;;;3.20;;
80159;SDS011;69486;59.082;37.928;2024-01-07T05:41:45;3.42;;;3.33;;
80159;SDS011;69486;59.082;37.928;2024-01-07T05:44:11;3.55;;;3.45;;
80159;SDS011;69486;59.082;37.928;2024-01-07T05:46:40;3.40;;;3.30;;
80159;SDS011;69486;59.082;37.928;2024-01-07T05:49:06;3.50;;;3.40;;
80159;SDS011;69486;59.082;37.928;2024-01-07T05:51:32;3.30;;;3.20;;
80159;SDS011;69486;59.082;37.928;2024-01-07T05:53:58;3.20;;;3.10;;
80159;SDS011;69486;59.082;37.928;2024-01-07T05:56:24;3.30;;;3.20;;
80159;SDS011;69486;59.082;37.928;2024-01-07T05:58:50;3.33;;;3.22;;
80159;SDS011;69486;59.082;37.928;2024-01-07T06:01:19;3.33;;;3.22;;
80159;SDS011;69486;59.082;37.928;2024-01-07T06:03:46;4.00;;;3.90;;
80159;SDS011;69486;59.082;37.928;2024-01-07T06:06:13;3.85;;;3.75;;
80159;SDS011;69486;59.082;37.928;2024-01-07T06:08:39;3.08;;;2.97;;
80159;SDS011;69486;59.082;37.928;2024-01-07T06:11:05;3.50;;;3.40;;
80159;SDS011;69486;59.082;37.928;2024-01-07T06:13:30;3.50;;;3.40;;
80159;SDS011;69486;59.082;37.928;2024-01-07T06:15:56;3.30;;;3.20;;
80159;SDS011;69486;59.082;37.928;2024-01-07T06:18:22;3.28;;;3.17;;
80159;SDS011;69486;59.082;37.928;2024-01-07T06:20:49;3.50;;;3.40;;
80159;SDS011;69486;59.082;37.928;2024-01-07T06:23:15;3.53;;;3.42;;
80159;SDS011;69486;59.082;37.928;2024-01-07T06:25:41;3.33;;;3.22;;
80159;SDS011;69486;59.082;37.928;2024-01-07T06:28:06;3.40;;;3.30;;
80159;SDS011;69486;59.082;37.928;2024-01-07T06:30:32;4.00;;;3.90;;
80159;SDS011;69486;59.082;37.928;2024-01-07T06:32:59;3.70;;;3.60;;
80159;SDS011;69486;59.082;37.928;2024-01-07T06:35:24;3.17;;;3.08;;
80159;SDS011;69486;59.082;37.928;2024-01-07T06:37:50;3.45;;;3.35;;
80159;SDS011;69486;59.082;37.928;2024-01-07T06:40:17;3.45;;;3.35;;
80159;SDS011;69486;59.082;37.928;2024-01-07T06:42:43;3.60;;;3.50;;
80159;SDS011;69486;59.082;37.928;2024-01-07T06:45:10;3.65;;;3.55;;
80159;SDS011;69486;59.082;37.928;2024-01-07T06:47:36;3.50;;;3.40;;
80159;SDS011;69486;59.082;37.928;2024-01-07T06:50:02;3.80;;;3.70;;
80159;SDS011;69486;59.082;37.928;2024-01-07T06:52:28;3.40;;;3.30;;
80159;SDS011;69486;59.082;37.928;2024-01-07T06:54:54;3.60;;;3.50;;
80159;SDS011;69486;59.082;37.928;2024-01-07T06:57:19;3.50;;;3.40;;
80159;SDS011;69486;59.082;37.928;2024-01-07T06:59:45;3.58;;;3.47;;
80159;SDS011;69486;59.082;37.928;2024-01-07T07:02:11;3.38;;;3.28;;
80159;SDS011;69486;59.082;37.928;2024-01-07T07:04:37;3.47;;;3.38;;
80159;SDS011;69486;59.082;37.928;2024-01-07T07:07:03;3.28;;;3.17;;
80159;SDS011;69486;59.082;37.928;2024-01-07T07:09:28;3.42;;;3.33;;
80159;SDS011;69486;59.082;37.928;2024-01-07T07:11:54;3.47;;;3.38;;
80159;SDS011;69486;59.082;37.928;2024-01-07T07:14:19;3.67;;;3.58;;
80159;SDS011;69486;59.082;37.928;2024-01-07T07:16:45;3.25;;;3.15;;
80159;SDS011;69486;59.082;37.928;2024-01-07T07:19:11;3.40;;;3.30;;
80159;SDS011;69486;59.082;37.928;2024-01-07T07:21:40;3.40;;;3.30;;
80159;SDS011;69486;59.082;37.928;2024-01-07T07:24:06;3.10;;;3.00;;
80159;SDS011;69486;59.082;37.928;2024-01-07T07:26:32;3.20;;;3.10;;
80159;SDS011;69486;59.082;37.928;2024-01-07T07:28:58;3.33;;;3.22;;
80159;SDS011;69486;59.082;37.928;2024-01-07T07:31:26;3.60;;;3.50;;
80159;SDS011;69486;59.082;37.928;2024-01-07T07:33:52;3.13;;;3.03;;
80159;SDS011;69486;59.082;37.928;2024-01-07T07:36:17;3.58;;;3.47;;
80159;SDS011;69486;59.082;37.928;2024-01-07T07:38:43;3.70;;;3.60;;
80159;SDS011;69486;59.082;37.928;2024-01-07T07:41:09;3.45;;;3.35;;
80159;SDS011;69486;59.082;37.928;2024-01-07T07:43:34;3.58;;;3.47;;
80159;SDS011;69486;59.082;37.928;2024-01-07T07:46:00;3.17;;;3.08;;
80159;SDS011;69486;59.082;37.928;2024-01-07T07:48:29;3.22;;;3.13;;
80159;SDS011;69486;59.082;37.928;2024-01-07T07:50:55;3.70;;;3.60;;
80159;SDS011;69486;59.082;37.928;2024-01-07T07:53:21;3.70;;;3.60;;
80159;SDS011;69486;59.082;37.928;2024-01-07T07:55:47;3.30;;;3.20;;
80159;SDS011;69486;59.082;37.928;2024-01-07T07:58:12;3.55;;;3.45;;
80159;SDS011;69486;59.082;37.928;2024-01-07T08:00:38;3.60;;;3.50;;
80159;SDS011;69486;59.082;37.928;2024-01-07T08:03:04;3.40;;;3.30;;
80159;SDS011;69486;59.082;37.928;2024-01-07T08:05:30;3.20;;;3.10;;
80159;SDS011;69486;59.082;37.928;2024-01-07T08:07:55;3.85;;;3.75;;
80159;SDS011;69486;59.082;37.928;2024-01-07T08:10:21;3.35;;;3.25;;
80159;SDS011;69486;59.082;37.928;2024-01-07T08:12:48;3.42;;;3.33;;
80159;SDS011;69486;59.082;37.928;2024-01-07T08:15:14;3.40;;;3.30;;
80159;SDS011;69486;59.082;37.928;2024-01-07T08:17:40;3.40;;;3.30;;
80159;SDS011;69486;59.082;37.928;2024-01-07T08:20:06;3.20;;;3.10;;
80159;SDS011;69486;59.082;37.928;2024-01-07T08:22:32;3.90;;;3.80;;
80159;SDS011;69486;59.082;37.928;2024-01-07T08:24:57;3.40;;;3.30;;
80159;SDS011;69486;59.082;37.928;2024-01-07T08:27:23;7.85;;;3.80;;
80159;SDS011;69486;59.082;37.928;2024-01-07T08:29:49;3.13;;;3.03;;
80159;SDS011;69486;59.082;37.928;2024-01-07T08:32:14;3.40;;;3.30;;
80159;SDS011;69486;59.082;37.928;2024-01-07T08:34:40;3.55;;;3.45;;
80159;SDS011;69486;59.082;37.928;2024-01-07T08:37:07;3.45;;;3.35;;
80159;SDS011;69486;59.082;37.928;2024-01-07T08:39:32;4.05;;;3.95;;
80159;SDS011;69486;59.082;37.928;2024-01-07T08:41:58;4.45;;;4.18;;
80159;SDS011;69486;59.082;37.928;2024-01-07T08:44:24;3.40;;;3.30;;
80159;SDS011;69486;59.082;37.928;2024-01-07T08:46:50;4.03;;;3.92;;
80159;SDS011;69486;59.082;37.928;2024-01-07T08:49:15;3.58;;;3.47;;
80159;SDS011;69486;59.082;37.928;2024-01-07T08:51:42;4.20;;;4.03;;
80159;SDS011;69486;59.082;37.928;2024-01-07T08:54:08;3.28;;;3.17;;
80159;SDS011;69486;59.082;37.928;2024-01-07T08:56:34;3.63;;;3.53;;
80159;SDS011;69486;59.082;37.928;2024-01-07T08:58:59;3.53;;;3.42;;
80159;SDS011;69486;59.082;37.928;2024-01-07T09:01:25;3.40;;;3.30;;
80159;SDS011;69486;59.082;37.928;2024-01-07T09:03:51;3.72;;;3.63;;
80159;SDS011;69486;59.082;37.928;2024-01-07T09:06:16;3.60;;;3.50;;
80159;SDS011;69486;59.082;37.928;2024-01-07T09:08:42;3.35;;;3.25;;
80159;SDS011;69486;59.082;37.928;2024-01-07T09:11:08;3.83;;;3.70;;
80159;SDS011;69486;59.082;37.928;2024-01-07T09:13:36;3.40;;;3.30;;
80159;SDS011;69486;59.082;37.928;2024-01-07T09:16:02;3.80;;;3.70;;
80159;SDS011;69486;59.082;37.928;2024-01-07T09:18:28;3.47;;;3.38;;
80159;SDS011;69486;59.082;37.928;2024-01-07T09:20:53;3.72;;;3.63;;
80159;SDS011;69486;59.082;37.928;2024-01-07T09:23:19;3.20;;;3.10;;
80159;SDS011;69486;59.082;37.928;2024-01-07T09:25:45;3.90;;;3.80;;
80159;SDS011;69486;59.082;37.928;2024-01-07T09:28:11;3.85;;;3.65;;
80159;SDS011;69486;59.082;37.928;2024-01-07T09:30:38;4.57;;;4.28;;
80159;SDS011;69486;59.082;37.928;2024-01-07T09:33:04;3.95;;;3.75;;
80159;SDS011;69486;59.082;37.928;2024-01-07T09:35:30;4.35;;;4.13;;
80159;SDS011;69486;59.082;37.928;2024-01-07T09:37:56;3.83;;;3.70;;
80159;SDS011;69486;59.082;37.928;2024-01-07T09:40:22;3.78;;;3.67;;
80159;SDS011;69486;59.082;37.928;2024-01-07T09:42:48;3.33;;;3.22;;
80159;SDS011;69486;59.082;37.928;2024-01-07T09:45:14;3.75;;;3.55;;
80159;SDS011;69486;59.082;37.928;2024-01-07T09:47:41;16.98;;;3.58;;
80159;SDS011;69486;59.082;37.928;2024-01-07T09:50:09;3.90;;;3.75;;
80159;SDS011;69486;59.082;37.928;2024-01-07T09:52:35;4.30;;;4.00;;
80159;SDS011;69486;59.082;37.928;2024-01-07T09:55:02;4.70;;;4.25;;
80159;SDS011;69486;59.082;37.928;2024-01-07T09:57:29;4.85;;;4.47;;
80159;SDS011;69486;59.082;37.928;2024-01-07T09:59:55;4.10;;;3.80;;
80159;SDS011;69486;59.082;37.928;2024-01-07T10:02:21;4.72;;;4.03;;
80159;SDS011;69486;59.082;37.928;2024-01-07T10:04:48;5.70;;;5.13;;
80159;SDS011;69486;59.082;37.928;2024-01-07T10:07:15;4.88;;;4.53;;
80159;SDS011;69486;59.082;37.928;2024-01-07T10:09:41;5.88;;;4.65;;
80159;SDS011;69486;59.082;37.928;2024-01-07T10:12:10;4.85;;;4.55;;
80159;SDS011;69486;59.082;37.928;2024-01-07T10:14:38;4.47;;;4.18;;
80159;SDS011;69486;59.082;37.928;2024-01-07T10:17:15;5.93;;;4.63;;
80159;SDS011;69486;59.082;37.928;2024-01-07T10:19:43;5.10;;;4.68;;
80159;SDS011;69486;59.082;37.928;2024-01-07T10:22:09;5.07;;;4.63;;
80159;SDS011;69486;59.082;37.928;2024-01-07T10:24:37;5.45;;;4.97;;
80159;SDS011;69486;59.082;37.928;2024-01-07T10:27:04;4.22;;;3.72;;
80159;SDS011;69486;59.082;37.928;2024-01-07T10:29:30;10.88;;;5.03;;
80159;SDS011;69486;59.082;37.928;2024-01-07T10:32:00;6.07;;;5.47;;
80159;SDS011;69486;59.082;37.928;2024-01-07T10:34:30;5.40;;;4.90;;
80159;SDS011;69486;59.082;37.928;2024-01-07T10:36:58;5.57;;;4.57;;
80159;SDS011;69486;59.082;37.928;2024-01-07T10:39:24;5.20;;;4.72;;
80159;SDS011;69486;59.082;37.928;2024-01-07T10:41:51;5.65;;;4.95;;
80159;SDS011;69486;59.082;37.928;2024-01-07T10:44:19;8.70;;;4.35;;
80159;SDS011;69486;59.082;37.928;2024-01-07T10:46:45;4.93;;;4.53;;
80159;SDS011;69486;59.082;37.928;2024-01-07T10:49:21;4.53;;;4.22;;
80159;SDS011;69486;59.082;37.928;2024-01-07T10:52:03;4.50;;;4.13;;
80159;SDS011;69486;59.082;37.928;2024-01-07T10:54:30;4.65;;;4.32;;
80159;SDS011;69486;59.082;37.928;2024-01-07T10:56:58;4.80;;;4.40;;
80159;SDS011;69486;59.082;37.928;2024-01-07T10:59:24;4.78;;;4.38;;
80159;SDS011;69486;59.082;37.928;2024-01-07T11:01:51;4.30;;;3.95;;
80159;SDS011;69486;59.082;37.928;2024-01-07T11:04:20;4.25;;;4.03;;
80159;SDS011;69486;59.082;37.928;2024-01-07T11:06:55;3.67;;;3.55;;
80159;SDS011;69486;59.082;37.928;2024-01-07T11:12:07;4.90;;;4.57;;
80159;SDS011;69486;59.082;37.928;2024-01-07T11:14:35;4.13;;;3.85;;
80159;SDS011;69486;59.082;37.928;2024-01-07T11:17:08;4.05;;;3.85;;
80159;SDS011;69486;59.082;37.928;2024-01-07T11:19:37;3.67;;;3.47;;
80159;SDS011;69486;59.082;37.928;2024-01-07T11:22:21;4.18;;;3.90;;
80159;SDS011;69486;59.082;37.928;2024-01-07T11:24:56;4.28;;;3.95;;
80159;SDS011;69486;59.082;37.928;2024-01-07T11:27:23;3.90;;;3.70;;
80159;SDS011;69486;59.082;37.928;2024-01-07T11:29:52;4.32;;;4.13;;
80159;SDS011;69486;59.082;37.928;2024-01-07T11:32:18;4.25;;;3.92;;
80159;SDS011;69486;59.082;37.928;2024-01-07T11:34:44;3.58;;;3.47;;
80159;SDS011;69486;59.082;37.928;2024-01-07T11:37:13;4.05;;;3.75;;
80159;SDS011;69486;59.082;37.928;2024-01-07T11:39:45;3.97;;;3.78;;
80159;SDS011;69486;59.082;37.928;2024-01-07T11:42:12;3.70;;;3.60;;
80159;SDS011;69486;59.082;37.928;2024-01-07T11:44:44;4.00;;;3.80;;
80159;SDS011;69486;59.082;37.928;2024-01-07T11:47:10;3.97;;;3.78;;
80159;SDS011;69486;59.082;37.928;2024-01-07T11:49:36;3.45;;;3.33;;
80159;SDS011;69486;59.082;37.928;2024-01-07T11:52:03;3.30;;;3.20;;
80159;SDS011;69486;59.082;37.928;2024-01-07T11:54:31;3.45;;;3.35;;
80159;SDS011;69486;59.082;37.928;2024-01-07T11:56:56;3.15;;;2.95;;
80159;SDS011;69486;59.082;37.928;2024-01-07T11:59:23;3.97;;;3.78;;
80159;SDS011;69486;59.082;37.928;2024-01-07T12:01:49;4.75;;;4.43;;
80159;SDS011;69486;59.082;37.928;2024-01-07T12:04:15;3.22;;;3.03;;
80159;SDS011;69486;59.082;37.928;2024-01-07T12:06:41;3.65;;;3.45;;
80159;SDS011;69486;59.082;37.928;2024-01-07T12:09:07;3.20;;;3.10;;
80159;SDS011;69486;59.082;37.928;2024-01-07T12:11:37;4.10;;;3.90;;
80159;SDS011;69486;59.082;37.928;2024-01-07T12:14:03;3.72;;;3.63;;
80159;SDS011;69486;59.082;37.928;2024-01-07T12:16:32;3.35;;;3.25;;
80159;SDS011;69486;59.082;37.928;2024-01-07T12:18:59;3.70;;;3.60;;
80159;SDS011;69486;59.082;37.928;2024-01-07T12:21:25;4.53;;;4.22;;
80159;SDS011;69486;59.082;37.928;2024-01-07T12:23:53;3.85;;;3.65;;
80159;SDS011;69486;59.082;37.928;2024-01-07T12:26:19;3.72;;;3.58;;
80159;SDS011;69486;59.082;37.928;2024-01-07T12:28:54;3.72;;;3.63;;
80159;SDS011;69486;59.082;37.928;2024-01-07T12:33:46;3.42;;;3.33;;
80159;SDS011;69486;59.082;37.928;2024-01-07T12:36:12;3.50;;;3.40;;
80159;SDS011;69486;59.082;37.928;2024-01-07T12:38:38;3.33;;;3.22;;
80159;SDS011;69486;59.082;37.928;2024-01-07T12:41:04;3.75;;;3.58;;
80159;SDS011;69486;59.082;37.928;2024-01-07T12:43:30;3.28;;;3.17;;
80159;SDS011;69486;59.082;37.928;2024-01-07T12:45:57;3.38;;;3.28;;
80159;SDS011;69486;59.082;37.928;2024-01-07T12:48:26;3.70;;;3.50;;
80159;SDS011;69486;59.082;37.928;2024-01-07T12:50:53;3.10;;;3.00;;
80159;SDS011;69486;59.082;37.928;2024-01-07T12:53:19;3.60;;;3.50;;
80159;SDS011;69486;59.082;37.928;2024-01-07T12:55:45;4.10;;;4.00;;
80159;SDS011;69486;59.082;37.928;2024-01-07T12:58:11;3.70;;;3.40;;
80159;SDS011;69486;59.082;37.928;2024-01-07T13:00:37;3.70;;;3.60;;
80159;SDS011;69486;59.082;37.928;2024-01-07T13:03:04;4.20;;;4.10;;
80159;SDS011;69486;59.082;37.928;2024-01-07T13:05:31;3.10;;;3.00;;
80159;SDS011;69486;59.082;37.928;2024-01-07T13:07:57;3.75;;;3.55;;
80159;SDS011;69486;59.082;37.928;2024-01-07T13:10:26;3.50;;;3.40;;
80159;SDS011;69486;59.082;37.928;2024-01-07T13:12:53;3.53;;;3.42;;
80159;SDS011;69486;59.082;37.928;2024-01-07T13:15:19;3.60;;;3.50;;
80159;SDS011;69486;59.082;37.928;2024-01-07T13:17:45;3.50;;;3.40;;
80159;SDS011;69486;59.082;37.928;2024-01-07T13:20:10;3.40;;;3.30;;
80159;SDS011;69486;59.082;37.928;2024-01-07T13:22:37;3.25;;;3.15;;
80159;SDS011;69486;59.082;37.928;2024-01-07T13:25:04;3.20;;;3.10;;
80159;SDS011;69486;59.082;37.928;2024-01-07T13:27:30;4.47;;;4.28;;
80159;SDS011;69486;59.082;37.928;2024-01-07T13:29:59;3.50;;;3.40;;
80159;SDS011;69486;59.082;37.928;2024-01-07T13:32:25;3.70;;;3.60;;
80159;SDS011;69486;59.082;37.928;2024-01-07T13:34:51;3.70;;;3.60;;
80159;SDS011;69486;59.082;37.928;2024-01-07T13:37:17;3.42;;;3.33;;
80159;SDS011;69486;59.082;37.928;2024-01-07T13:39:43;3.25;;;3.15;;
80159;SDS011;69486;59.082;37.928;2024-01-07T13:42:09;3.50;;;3.40;;
80159;SDS011;69486;59.082;37.928;2024-01-07T13:44:34;3.55;;;3.45;;
80159;SDS011;69486;59.082;37.928;2024-01-07T13:47:00;3.50;;;3.40;;
80159;SDS011;69486;59.082;37.928;2024-01-07T13:49:30;3.50;;;3.40;;
80159;SDS011;69486;59.082;37.928;2024-01-07T13:51:56;3.53;;;3.42;;
80159;SDS011;69486;59.082;37.928;2024-01-07T13:54:22;3.70;;;3.60;;
80159;SDS011;69486;59.082;37.928;2024-01-07T13:56:48;3.45;;;3.35;;
80159;SDS011;69486;59.082;37.928;2024-01-07T13:59:14;3.50;;;3.40;;
80159;SDS011;69486;59.082;37.928;2024-01-07T14:01:39;3.88;;;3.78;;
80159;SDS011;69486;59.082;37.928;2024-01-07T14:04:06;3.90;;;3.80;;
80159;SDS011;69486;59.082;37.928;2024-01-07T14:06:32;3.60;;;3.50;;
80159;SDS011;69486;59.082;37.928;2024-01-07T14:08:58;4.38;;;4.18;;
80159;SDS011;69486;59.082;37.928;2024-01-07T14:11:24;3.80;;;3.70;;
80159;SDS011;69486;59.082;37.928;2024-01-07T14:13:50;4.32;;;4.18;;
80159;SDS011;69486;59.082;37.928;2024-01-07T14:16:16;3.42;;;3.33;;
80159;SDS011;69486;59.082;37.928;2024-01-07T14:18:41;3.70;;;3.60;;
80159;SDS011;69486;59.082;37.928;2024-01-07T14:21:07;3.30;;;3.20;;
80159;SDS011;69486;59.082;37.928;2024-01-07T14:23:34;3.70;;;3.53;;
80159;SDS011;69486;59.082;37.928;2024-01-07T14:26:01;3.63;;;3.53;;
80159;SDS011;69486;59.082;37.928;2024-01-07T14:28:29;3.28;;;3.17;;
80159;SDS011;69486;59.082;37.928;2024-01-07T14:30:55;3.70;;;3.60;;
80159;SDS011;69486;59.082;37.928;2024-01-07T14:33:24;3.55;;;3.45;;